sensor_id;sensor_type;location;lat;lon;timestamp;temperature;humidity
29321;DHT22;16323;51.130;6.612;2022-08-01T00:01:34;23.60;90.00
29321;DHT22;16323;51.130;6.612;2022-08-01T00:04:01;23.60;90.00
29321;DHT22;16323;51.130;6.612;2022-08-01T00:06:29;23.60;89.90
29321;DHT22;16323;51.130;6.612;2022-08-01T00:08:56;23.60;89.90
29321;DHT22;16323;51.130;6.612;2022-08-01T00:11:23;23.60;89.80
29321;DHT22;16323;51.130;6.612;2022-08-01T00:13:50;23.60;89.80
29321;DHT22;16323;51.130;6.612;2022-08-01T00:16:17;23.60;89.80
29321;DHT22;16323;51.130;6.612;2022-08-01T00:18:44;23.60;89.70
29321;DHT22;16323;51.130;6.612;2022-08-01T00:21:10;23.60;89.60
29321;DHT22;16323;51.130;6.612;2022-08-01T00:23:39;23.60;89.80
29321;DHT22;16323;51.130;6.612;2022-08-01T00:26:05;23.60;89.60
29321;DHT22;16323;51.130;6.612;2022-08-01T00:28:33;23.60;89.40
29321;DHT22;16323;51.130;6.612;2022-08-01T00:31:00;23.60;89.40
29321;DHT22;16323;51.130;6.612;2022-08-01T00:33:27;23.60;89.50
29321;DHT22;16323;51.130;6.612;2022-08-01T00:35:54;23.60;89.50
29321;DHT22;16323;51.130;6.612;2022-08-01T00:38:21;23.60;89.40
29321;DHT22;16323;51.130;6.612;2022-08-01T00:40:50;23.60;89.50
29321;DHT22;16323;51.130;6.612;2022-08-01T00:43:17;23.60;89.80
29321;DHT22;16323;51.130;6.612;2022-08-01T00:45:43;23.60;89.60
29321;DHT22;16323;51.130;6.612;2022-08-01T00:48:10;23.60;89.50
29321;DHT22;16323;51.130;6.612;2022-08-01T00:50:38;23.60;89.60
29321;DHT22;16323;51.130;6.612;2022-08-01T00:53:06;23.60;89.70
29321;DHT22;16323;51.130;6.612;2022-08-01T00:55:33;23.60;89.60
29321;DHT22;16323;51.130;6.612;2022-08-01T00:58:02;23.60;89.60
29321;DHT22;16323;51.130;6.612;2022-08-01T01:00:29;23.60;89.60
29321;DHT22;16323;51.130;6.612;2022-08-01T01:02:56;23.60;89.60
29321;DHT22;16323;51.130;6.612;2022-08-01T01:05:22;23.60;89.60
29321;DHT22;16323;51.130;6.612;2022-08-01T01:07:54;23.60;89.60
29321;DHT22;16323;51.130;6.612;2022-08-01T01:10:25;23.60;89.60
29321;DHT22;16323;51.130;6.612;2022-08-01T01:12:59;23.60;89.50
29321;DHT22;16323;51.130;6.612;2022-08-01T01:15:33;23.60;89.70
29321;DHT22;16323;51.130;6.612;2022-08-01T01:18:04;23.60;89.50
29321;DHT22;16323;51.130;6.612;2022-08-01T01:20:37;23.60;89.50
29321;DHT22;16323;51.130;6.612;2022-08-01T01:23:21;23.60;89.40
29321;DHT22;16323;51.130;6.612;2022-08-01T01:26:04;23.60;89.50
29321;DHT22;16323;51.130;6.612;2022-08-01T01:28:58;23.60;89.40
29321;DHT22;16323;51.130;6.612;2022-08-01T01:31:27;23.60;89.40
29321;DHT22;16323;51.130;6.612;2022-08-01T01:33:57;23.60;89.50
29321;DHT22;16323;51.130;6.612;2022-08-01T01:36:26;23.60;89.40
29321;DHT22;16323;51.130;6.612;2022-08-01T01:38:54;23.60;89.40
29321;DHT22;16323;51.130;6.612;2022-08-01T01:41:22;23.60;89.40
29321;DHT22;16323;51.130;6.612;2022-08-01T01:43:51;23.60;89.40
29321;DHT22;16323;51.130;6.612;2022-08-01T01:46:23;23.60;89.50
29321;DHT22;16323;51.130;6.612;2022-08-01T01:48:54;23.60;89.40
29321;DHT22;16323;51.130;6.612;2022-08-01T01:51:22;23.60;89.50
29321;DHT22;16323;51.130;6.612;2022-08-01T01:53:53;23.60;89.40
29321;DHT22;16323;51.130;6.612;2022-08-01T01:56:20;23.60;89.50
29321;DHT22;16323;51.130;6.612;2022-08-01T01:58:51;23.50;89.40
29321;DHT22;16323;51.130;6.612;2022-08-01T02:01:21;23.60;89.50
29321;DHT22;16323;51.130;6.612;2022-08-01T02:03:51;23.60;89.50
29321;DHT22;16323;51.130;6.612;2022-08-01T02:06:19;23.60;89.50
29321;DHT22;16323;51.130;6.612;2022-08-01T02:08:47;23.60;89.40
29321;DHT22;16323;51.130;6.612;2022-08-01T02:11:14;23.60;89.60
29321;DHT22;16323;51.130;6.612;2022-08-01T02:13:52;23.60;89.70
29321;DHT22;16323;51.130;6.612;2022-08-01T02:16:21;23.60;89.80
29321;DHT22;16323;51.130;6.612;2022-08-01T02:18:49;23.60;89.90
29321;DHT22;16323;51.130;6.612;2022-08-01T02:21:20;23.60;90.00
29321;DHT22;16323;51.130;6.612;2022-08-01T02:23:50;23.60;90.00
29321;DHT22;16323;51.130;6.612;2022-08-01T02:26:18;23.60;90.00
29321;DHT22;16323;51.130;6.612;2022-08-01T02:28:48;23.60;90.00
29321;DHT22;16323;51.130;6.612;2022-08-01T02:31:20;23.60;90.00
29321;DHT22;16323;51.130;6.612;2022-08-01T02:33:55;23.60;90.00
29321;DHT22;16323;51.130;6.612;2022-08-01T02:36:26;23.60;90.00
29321;DHT22;16323;51.130;6.612;2022-08-01T02:38:55;23.60;90.00
29321;DHT22;16323;51.130;6.612;2022-08-01T02:41:24;23.60;90.00
29321;DHT22;16323;51.130;6.612;2022-08-01T02:43:57;23.60;90.00
29321;DHT22;16323;51.130;6.612;2022-08-01T02:46:28;23.60;90.00
29321;DHT22;16323;51.130;6.612;2022-08-01T02:48:59;23.60;90.00
29321;DHT22;16323;51.130;6.612;2022-08-01T02:51:28;23.60;90.00
29321;DHT22;16323;51.130;6.612;2022-08-01T02:53:57;23.60;90.00
29321;DHT22;16323;51.130;6.612;2022-08-01T02:56:26;23.60;90.00
29321;DHT22;16323;51.130;6.612;2022-08-01T02:59:01;23.60;90.00
29321;DHT22;16323;51.130;6.612;2022-08-01T03:01:29;23.60;90.00
29321;DHT22;16323;51.130;6.612;2022-08-01T03:03:58;23.60;90.00
29321;DHT22;16323;51.130;6.612;2022-08-01T03:06:26;23.60;90.00
29321;DHT22;16323;51.130;6.612;2022-08-01T03:08:54;23.60;90.00
29321;DHT22;16323;51.130;6.612;2022-08-01T03:11:22;23.60;90.00
29321;DHT22;16323;51.130;6.612;2022-08-01T03:13:51;23.60;90.00
29321;DHT22;16323;51.130;6.612;2022-08-01T03:16:19;23.60;90.00
29321;DHT22;16323;51.130;6.612;2022-08-01T03:18:48;23.60;90.00
29321;DHT22;16323;51.130;6.612;2022-08-01T03:21:18;23.60;90.00
29321;DHT22;16323;51.130;6.612;2022-08-01T03:23:48;23.60;90.00
29321;DHT22;16323;51.130;6.612;2022-08-01T03:26:16;23.60;90.00
29321;DHT22;16323;51.130;6.612;2022-08-01T03:28:44;23.60;90.00
29321;DHT22;16323;51.130;6.612;2022-08-01T03:31:13;23.60;90.00
29321;DHT22;16323;51.130;6.612;2022-08-01T03:33:40;23.60;90.00
29321;DHT22;16323;51.130;6.612;2022-08-01T03:36:09;23.60;90.00
29321;DHT22;16323;51.130;6.612;2022-08-01T03:38:39;23.60;90.00
29321;DHT22;16323;51.130;6.612;2022-08-01T03:41:09;23.60;90.00
29321;DHT22;16323;51.130;6.612;2022-08-01T03:43:41;23.60;90.00
29321;DHT22;16323;51.130;6.612;2022-08-01T03:46:12;23.60;90.00
29321;DHT22;16323;51.130;6.612;2022-08-01T03:48:43;23.60;90.10
29321;DHT22;16323;51.130;6.612;2022-08-01T03:51:14;23.60;90.00
29321;DHT22;16323;51.130;6.612;2022-08-01T03:53:42;23.60;90.00
29321;DHT22;16323;51.130;6.612;2022-08-01T03:56:13;23.60;90.00
29321;DHT22;16323;51.130;6.612;2022-08-01T03:58:42;23.60;90.10
29321;DHT22;16323;51.130;6.612;2022-08-01T04:01:09;23.60;90.00
29321;DHT22;16323;51.130;6.612;2022-08-01T04:03:37;23.60;90.00
29321;DHT22;16323;51.130;6.612;2022-08-01T04:06:04;23.60;90.10
29321;DHT22;16323;51.130;6.612;2022-08-01T04:08:36;23.60;90.10
29321;DHT22;16323;51.130;6.612;2022-08-01T04:11:04;23.60;90.10
29321;DHT22;16323;51.130;6.612;2022-08-01T04:13:31;23.60;90.10
29321;DHT22;16323;51.130;6.612;2022-08-01T04:15:59;23.60;90.10
29321;DHT22;16323;51.130;6.612;2022-08-01T04:18:26;23.60;90.10
29321;DHT22;16323;51.130;6.612;2022-08-01T04:20:52;23.60;90.10
29321;DHT22;16323;51.130;6.612;2022-08-01T04:23:22;23.60;90.10
29321;DHT22;16323;51.130;6.612;2022-08-01T04:25:51;23.60;90.10
29321;DHT22;16323;51.130;6.612;2022-08-01T04:28:21;23.60;90.10
29321;DHT22;16323;51.130;6.612;2022-08-01T04:30:50;23.60;90.10
29321;DHT22;16323;51.130;6.612;2022-08-01T04:33:19;23.60;90.10
29321;DHT22;16323;51.130;6.612;2022-08-01T04:35:47;23.60;90.10
29321;DHT22;16323;51.130;6.612;2022-08-01T04:38:19;23.60;90.10
29321;DHT22;16323;51.130;6.612;2022-08-01T04:40:46;23.60;90.10
29321;DHT22;16323;51.130;6.612;2022-08-01T04:43:16;23.60;90.10
29321;DHT22;16323;51.130;6.612;2022-08-01T04:45:47;23.60;90.10
29321;DHT22;16323;51.130;6.612;2022-08-01T04:48:17;23.60;90.10
29321;DHT22;16323;51.130;6.612;2022-08-01T04:50:45;23.60;90.00
29321;DHT22;16323;51.130;6.612;2022-08-01T04:53:13;23.60;90.10
29321;DHT22;16323;51.130;6.612;2022-08-01T04:55:42;23.60;90.10
29321;DHT22;16323;51.130;6.612;2022-08-01T04:58:09;23.60;90.10
29321;DHT22;16323;51.130;6.612;2022-08-01T05:00:36;23.60;90.20
29321;DHT22;16323;51.130;6.612;2022-08-01T05:03:04;23.60;90.20
29321;DHT22;16323;51.130;6.612;2022-08-01T05:05:31;23.60;90.10
29321;DHT22;16323;51.130;6.612;2022-08-01T05:07:59;23.60;90.20
29321;DHT22;16323;51.130;6.612;2022-08-01T05:10:26;23.60;90.70
29321;DHT22;16323;51.130;6.612;2022-08-01T05:12:53;23.60;91.20
29321;DHT22;16323;51.130;6.612;2022-08-01T05:15:20;23.60;91.40
29321;DHT22;16323;51.130;6.612;2022-08-01T05:17:47;23.60;91.60
29321;DHT22;16323;51.130;6.612;2022-08-01T05:20:15;23.60;91.50
29321;DHT22;16323;51.130;6.612;2022-08-01T05:22:42;23.60;91.30
29321;DHT22;16323;51.130;6.612;2022-08-01T05:25:09;23.60;91.20
29321;DHT22;16323;51.130;6.612;2022-08-01T05:27:36;23.60;91.10
29321;DHT22;16323;51.130;6.612;2022-08-01T05:30:06;23.60;91.00
29321;DHT22;16323;51.130;6.612;2022-08-01T05:32:33;23.60;91.10
29321;DHT22;16323;51.130;6.612;2022-08-01T05:35:00;23.60;91.10
29321;DHT22;16323;51.130;6.612;2022-08-01T05:37:29;23.60;91.10
29321;DHT22;16323;51.130;6.612;2022-08-01T05:39:55;23.60;91.00
29321;DHT22;16323;51.130;6.612;2022-08-01T05:42:22;23.60;91.00
29321;DHT22;16323;51.130;6.612;2022-08-01T05:44:49;23.60;90.90
29321;DHT22;16323;51.130;6.612;2022-08-01T05:47:16;23.60;90.90
29321;DHT22;16323;51.130;6.612;2022-08-01T05:49:43;23.60;91.00
29321;DHT22;16323;51.130;6.612;2022-08-01T05:52:10;23.60;90.90
29321;DHT22;16323;51.130;6.612;2022-08-01T05:54:38;23.60;90.80
29321;DHT22;16323;51.130;6.612;2022-08-01T05:57:05;23.60;90.80
29321;DHT22;16323;51.130;6.612;2022-08-01T05:59:32;23.60;90.70
29321;DHT22;16323;51.130;6.612;2022-08-01T06:01:59;23.60;90.70
29321;DHT22;16323;51.130;6.612;2022-08-01T06:04:26;23.70;90.70
29321;DHT22;16323;51.130;6.612;2022-08-01T06:06:53;23.70;90.60
29321;DHT22;16323;51.130;6.612;2022-08-01T06:09:20;23.70;90.70
29321;DHT22;16323;51.130;6.612;2022-08-01T06:11:48;23.70;90.60
29321;DHT22;16323;51.130;6.612;2022-08-01T06:14:15;23.70;90.50
29321;DHT22;16323;51.130;6.612;2022-08-01T06:16:42;23.70;90.50
29321;DHT22;16323;51.130;6.612;2022-08-01T06:19:09;23.70;90.50
29321;DHT22;16323;51.130;6.612;2022-08-01T06:21:35;23.70;90.50
29321;DHT22;16323;51.130;6.612;2022-08-01T06:24:03;23.70;90.50
29321;DHT22;16323;51.130;6.612;2022-08-01T06:26:30;23.70;90.40
29321;DHT22;16323;51.130;6.612;2022-08-01T06:28:58;23.70;90.40
29321;DHT22;16323;51.130;6.612;2022-08-01T06:31:25;23.70;90.40
29321;DHT22;16323;51.130;6.612;2022-08-01T06:33:51;23.70;90.40
29321;DHT22;16323;51.130;6.612;2022-08-01T06:36:18;23.70;90.50
29321;DHT22;16323;51.130;6.612;2022-08-01T06:38:45;23.70;90.40
29321;DHT22;16323;51.130;6.612;2022-08-01T06:41:12;23.70;90.40
29321;DHT22;16323;51.130;6.612;2022-08-01T06:43:38;23.70;90.50
29321;DHT22;16323;51.130;6.612;2022-08-01T06:46:07;23.70;90.40
29321;DHT22;16323;51.130;6.612;2022-08-01T06:48:33;23.70;90.50
29321;DHT22;16323;51.130;6.612;2022-08-01T06:51:04;23.70;90.40
29321;DHT22;16323;51.130;6.612;2022-08-01T06:53:40;23.70;90.40
29321;DHT22;16323;51.130;6.612;2022-08-01T06:56:07;23.70;90.80
29321;DHT22;16323;51.130;6.612;2022-08-01T06:58:35;23.70;90.40
29321;DHT22;16323;51.130;6.612;2022-08-01T07:01:02;23.70;90.30
29321;DHT22;16323;51.130;6.612;2022-08-01T07:03:32;23.70;90.30
29321;DHT22;16323;51.130;6.612;2022-08-01T07:05:59;23.70;90.40
29321;DHT22;16323;51.130;6.612;2022-08-01T07:08:26;23.70;90.30
29321;DHT22;16323;51.130;6.612;2022-08-01T07:10:53;23.70;90.40
29321;DHT22;16323;51.130;6.612;2022-08-01T07:13:19;23.70;90.30
29321;DHT22;16323;51.130;6.612;2022-08-01T07:15:50;23.70;90.40
29321;DHT22;16323;51.130;6.612;2022-08-01T07:18:17;23.70;90.50
29321;DHT22;16323;51.130;6.612;2022-08-01T07:20:45;23.70;90.50
29321;DHT22;16323;51.130;6.612;2022-08-01T07:23:12;23.70;90.50
29321;DHT22;16323;51.130;6.612;2022-08-01T07:25:39;23.70;90.50
29321;DHT22;16323;51.130;6.612;2022-08-01T07:28:06;23.70;90.50
29321;DHT22;16323;51.130;6.612;2022-08-01T07:30:33;23.70;90.40
29321;DHT22;16323;51.130;6.612;2022-08-01T07:33:00;23.70;90.40
29321;DHT22;16323;51.130;6.612;2022-08-01T07:35:27;23.70;90.40
29321;DHT22;16323;51.130;6.612;2022-08-01T07:37:55;23.70;90.30
29321;DHT22;16323;51.130;6.612;2022-08-01T07:40:21;23.70;90.30
29321;DHT22;16323;51.130;6.612;2022-08-01T07:42:48;23.70;90.30
29321;DHT22;16323;51.130;6.612;2022-08-01T07:45:15;23.70;90.30
29321;DHT22;16323;51.130;6.612;2022-08-01T07:47:42;23.70;90.30
29321;DHT22;16323;51.130;6.612;2022-08-01T07:50:09;23.70;90.30
29321;DHT22;16323;51.130;6.612;2022-08-01T07:52:37;23.70;90.30
29321;DHT22;16323;51.130;6.612;2022-08-01T07:55:07;23.70;90.30
29321;DHT22;16323;51.130;6.612;2022-08-01T07:57:34;23.60;90.20
29321;DHT22;16323;51.130;6.612;2022-08-01T08:00:02;23.70;90.20
29321;DHT22;16323;51.130;6.612;2022-08-01T08:02:30;23.70;90.20
29321;DHT22;16323;51.130;6.612;2022-08-01T08:04:56;23.70;90.20
29321;DHT22;16323;51.130;6.612;2022-08-01T08:07:23;23.60;90.10
29321;DHT22;16323;51.130;6.612;2022-08-01T08:09:50;23.70;90.10
29321;DHT22;16323;51.130;6.612;2022-08-01T08:12:18;23.70;90.10
29321;DHT22;16323;51.130;6.612;2022-08-01T08:14:45;23.70;90.10
29321;DHT22;16323;51.130;6.612;2022-08-01T08:17:12;23.70;90.10
29321;DHT22;16323;51.130;6.612;2022-08-01T08:19:38;23.70;90.10
29321;DHT22;16323;51.130;6.612;2022-08-01T08:22:06;23.70;90.10
29321;DHT22;16323;51.130;6.612;2022-08-01T08:24:33;23.70;90.00
29321;DHT22;16323;51.130;6.612;2022-08-01T08:27:01;23.70;90.10
29321;DHT22;16323;51.130;6.612;2022-08-01T08:29:30;23.70;90.00
29321;DHT22;16323;51.130;6.612;2022-08-01T08:31:58;23.70;90.00
29321;DHT22;16323;51.130;6.612;2022-08-01T08:34:26;23.70;90.00
29321;DHT22;16323;51.130;6.612;2022-08-01T08:36:54;23.70;89.80
29321;DHT22;16323;51.130;6.612;2022-08-01T08:39:21;23.70;89.90
29321;DHT22;16323;51.130;6.612;2022-08-01T08:41:49;23.70;89.90
29321;DHT22;16323;51.130;6.612;2022-08-01T08:44:17;23.70;90.00
29321;DHT22;16323;51.130;6.612;2022-08-01T08:46:48;23.70;90.00
29321;DHT22;16323;51.130;6.612;2022-08-01T08:49:19;23.70;89.80
29321;DHT22;16323;51.130;6.612;2022-08-01T08:51:48;23.70;89.70
29321;DHT22;16323;51.130;6.612;2022-08-01T08:54:16;23.70;89.70
29321;DHT22;16323;51.130;6.612;2022-08-01T08:56:44;23.70;89.70
29321;DHT22;16323;51.130;6.612;2022-08-01T08:59:12;23.70;89.70
29321;DHT22;16323;51.130;6.612;2022-08-01T09:01:40;23.70;89.60
29321;DHT22;16323;51.130;6.612;2022-08-01T09:04:08;23.70;89.60
29321;DHT22;16323;51.130;6.612;2022-08-01T09:06:36;23.70;89.70
29321;DHT22;16323;51.130;6.612;2022-08-01T09:09:04;23.70;89.80
29321;DHT22;16323;51.130;6.612;2022-08-01T09:11:31;23.70;89.80
29321;DHT22;16323;51.130;6.612;2022-08-01T09:14:04;23.70;89.90
29321;DHT22;16323;51.130;6.612;2022-08-01T09:16:31;23.70;89.80
29321;DHT22;16323;51.130;6.612;2022-08-01T09:19:10;23.70;89.60
29321;DHT22;16323;51.130;6.612;2022-08-01T09:21:38;23.70;89.60
29321;DHT22;16323;51.130;6.612;2022-08-01T09:24:15;23.70;89.60
29321;DHT22;16323;51.130;6.612;2022-08-01T09:26:42;23.70;89.60
29321;DHT22;16323;51.130;6.612;2022-08-01T09:29:18;23.70;89.60
29321;DHT22;16323;51.130;6.612;2022-08-01T09:31:46;23.70;89.40
29321;DHT22;16323;51.130;6.612;2022-08-01T09:34:15;23.70;89.40
29321;DHT22;16323;51.130;6.612;2022-08-01T09:36:48;23.70;89.30
29321;DHT22;16323;51.130;6.612;2022-08-01T09:39:19;23.70;89.10
29321;DHT22;16323;51.130;6.612;2022-08-01T09:41:46;23.70;89.10
29321;DHT22;16323;51.130;6.612;2022-08-01T09:44:14;23.70;89.00
29321;DHT22;16323;51.130;6.612;2022-08-01T09:46:51;23.70;89.00
29321;DHT22;16323;51.130;6.612;2022-08-01T09:49:29;23.70;89.20
29321;DHT22;16323;51.130;6.612;2022-08-01T09:51:57;23.70;89.30
29321;DHT22;16323;51.130;6.612;2022-08-01T09:54:31;23.70;89.20
29321;DHT22;16323;51.130;6.612;2022-08-01T09:57:13;23.70;89.00
29321;DHT22;16323;51.130;6.612;2022-08-01T09:59:41;23.70;88.90
29321;DHT22;16323;51.130;6.612;2022-08-01T10:02:09;23.70;88.90
29321;DHT22;16323;51.130;6.612;2022-08-01T10:04:46;23.70;88.80
29321;DHT22;16323;51.130;6.612;2022-08-01T10:07:12;23.70;88.60
29321;DHT22;16323;51.130;6.612;2022-08-01T10:09:42;23.70;88.40
29321;DHT22;16323;51.130;6.612;2022-08-01T10:12:10;23.70;88.40
29321;DHT22;16323;51.130;6.612;2022-08-01T10:14:38;23.70;88.30
29321;DHT22;16323;51.130;6.612;2022-08-01T10:17:08;23.70;88.40
29321;DHT22;16323;51.130;6.612;2022-08-01T10:19:36;23.70;88.20
29321;DHT22;16323;51.130;6.612;2022-08-01T10:22:08;23.70;88.20
29321;DHT22;16323;51.130;6.612;2022-08-01T10:24:36;23.70;88.20
29321;DHT22;16323;51.130;6.612;2022-08-01T10:27:05;23.70;88.20
29321;DHT22;16323;51.130;6.612;2022-08-01T10:29:39;23.70;88.30
29321;DHT22;16323;51.130;6.612;2022-08-01T10:32:07;23.70;88.10
29321;DHT22;16323;51.130;6.612;2022-08-01T10:34:35;23.70;87.50
29321;DHT22;16323;51.130;6.612;2022-08-01T10:37:02;23.80;87.70
29321;DHT22;16323;51.130;6.612;2022-08-01T10:39:32;23.80;87.40
29321;DHT22;16323;51.130;6.612;2022-08-01T10:41:59;23.80;87.30
29321;DHT22;16323;51.130;6.612;2022-08-01T10:44:28;23.80;87.30
29321;DHT22;16323;51.130;6.612;2022-08-01T10:47:06;23.80;87.10
29321;DHT22;16323;51.130;6.612;2022-08-01T10:49:39;23.80;87.10
29321;DHT22;16323;51.130;6.612;2022-08-01T10:52:07;23.80;87.10
29321;DHT22;16323;51.130;6.612;2022-08-01T10:54:39;23.80;87.10
29321;DHT22;16323;51.130;6.612;2022-08-01T10:57:07;23.80;87.30
29321;DHT22;16323;51.130;6.612;2022-08-01T10:59:34;23.80;87.40
29321;DHT22;16323;51.130;6.612;2022-08-01T11:02:05;23.80;87.40
29321;DHT22;16323;51.130;6.612;2022-08-01T11:04:37;23.80;87.40
29321;DHT22;16323;51.130;6.612;2022-08-01T11:07:18;23.80;87.50
29321;DHT22;16323;51.130;6.612;2022-08-01T11:09:51;23.80;87.60
29321;DHT22;16323;51.130;6.612;2022-08-01T11:12:38;23.80;87.70
29321;DHT22;16323;51.130;6.612;2022-08-01T11:15:19;23.80;87.60
29321;DHT22;16323;51.130;6.612;2022-08-01T11:17:53;23.80;87.40
29321;DHT22;16323;51.130;6.612;2022-08-01T11:20:21;23.80;87.30
29321;DHT22;16323;51.130;6.612;2022-08-01T11:23:16;23.80;87.40
29321;DHT22;16323;51.130;6.612;2022-08-01T11:29:15;23.80;87.00
29321;DHT22;16323;51.130;6.612;2022-08-01T11:31:42;23.80;86.90
29321;DHT22;16323;51.130;6.612;2022-08-01T11:34:10;23.80;86.70
29321;DHT22;16323;51.130;6.612;2022-08-01T11:36:37;23.80;86.70
29321;DHT22;16323;51.130;6.612;2022-08-01T11:39:15;23.80;86.60
29321;DHT22;16323;51.130;6.612;2022-08-01T11:41:43;23.80;86.60
29321;DHT22;16323;51.130;6.612;2022-08-01T11:44:14;23.80;86.80
29321;DHT22;16323;51.130;6.612;2022-08-01T11:46:46;23.80;86.80
29321;DHT22;16323;51.130;6.612;2022-08-01T11:49:26;23.80;86.70
29321;DHT22;16323;51.130;6.612;2022-08-01T11:52:01;23.80;86.60
29321;DHT22;16323;51.130;6.612;2022-08-01T11:54:29;23.80;86.50
29321;DHT22;16323;51.130;6.612;2022-08-01T11:56:57;23.80;86.50
29321;DHT22;16323;51.130;6.612;2022-08-01T11:59:26;23.80;86.40
29321;DHT22;16323;51.130;6.612;2022-08-01T12:01:53;23.90;86.40
29321;DHT22;16323;51.130;6.612;2022-08-01T12:04:20;23.80;86.10
29321;DHT22;16323;51.130;6.612;2022-08-01T12:06:47;23.90;86.10
29321;DHT22;16323;51.130;6.612;2022-08-01T12:09:18;23.80;85.90
29321;DHT22;16323;51.130;6.612;2022-08-01T12:11:45;23.80;85.70
29321;DHT22;16323;51.130;6.612;2022-08-01T12:14:19;23.80;85.60
29321;DHT22;16323;51.130;6.612;2022-08-01T12:16:52;23.80;85.50
29321;DHT22;16323;51.130;6.612;2022-08-01T12:19:21;23.90;85.30
29321;DHT22;16323;51.130;6.612;2022-08-01T12:22:07;23.90;85.20
29321;DHT22;16323;51.130;6.612;2022-08-01T12:24:35;23.90;84.90
29321;DHT22;16323;51.130;6.612;2022-08-01T12:27:03;23.90;84.90
29321;DHT22;16323;51.130;6.612;2022-08-01T12:29:34;23.90;84.70
29321;DHT22;16323;51.130;6.612;2022-08-01T12:32:03;23.90;84.70
29321;DHT22;16323;51.130;6.612;2022-08-01T12:34:30;23.90;84.70
29321;DHT22;16323;51.130;6.612;2022-08-01T12:37:00;23.90;84.70
29321;DHT22;16323;51.130;6.612;2022-08-01T12:39:32;23.90;84.60
29321;DHT22;16323;51.130;6.612;2022-08-01T12:41:59;23.90;84.50
29321;DHT22;16323;51.130;6.612;2022-08-01T12:44:27;23.90;84.30
29321;DHT22;16323;51.130;6.612;2022-08-01T12:46:54;23.90;84.20
29321;DHT22;16323;51.130;6.612;2022-08-01T12:49:23;23.90;84.10
29321;DHT22;16323;51.130;6.612;2022-08-01T12:51:50;23.80;84.00
29321;DHT22;16323;51.130;6.612;2022-08-01T12:54:17;23.90;84.00
29321;DHT22;16323;51.130;6.612;2022-08-01T12:56:44;23.90;84.20
29321;DHT22;16323;51.130;6.612;2022-08-01T12:59:22;23.80;83.80
29321;DHT22;16323;51.130;6.612;2022-08-01T13:01:51;23.80;83.80
29321;DHT22;16323;51.130;6.612;2022-08-01T13:04:17;23.80;83.70
29321;DHT22;16323;51.130;6.612;2022-08-01T13:06:46;23.90;83.70
29321;DHT22;16323;51.130;6.612;2022-08-01T13:09:13;23.80;83.50
29321;DHT22;16323;51.130;6.612;2022-08-01T13:11:40;23.90;83.60
29321;DHT22;16323;51.130;6.612;2022-08-01T13:14:07;23.90;83.70
29321;DHT22;16323;51.130;6.612;2022-08-01T13:16:45;23.90;83.80
29321;DHT22;16323;51.130;6.612;2022-08-01T13:19:12;23.90;83.80
29321;DHT22;16323;51.130;6.612;2022-08-01T13:21:39;23.90;83.90
29321;DHT22;16323;51.130;6.612;2022-08-01T13:24:25;23.90;83.80
29321;DHT22;16323;51.130;6.612;2022-08-01T13:26:54;23.90;84.00
29321;DHT22;16323;51.130;6.612;2022-08-01T13:29:29;23.90;83.90
29321;DHT22;16323;51.130;6.612;2022-08-01T13:31:57;23.90;84.00
29321;DHT22;16323;51.130;6.612;2022-08-01T13:34:30;23.90;83.90
29321;DHT22;16323;51.130;6.612;2022-08-01T13:36:57;23.90;83.80
29321;DHT22;16323;51.130;6.612;2022-08-01T13:39:25;23.90;83.80
29321;DHT22;16323;51.130;6.612;2022-08-01T13:42:08;23.90;83.90
29321;DHT22;16323;51.130;6.612;2022-08-01T13:44:34;23.90;83.90
29321;DHT22;16323;51.130;6.612;2022-08-01T13:47:02;23.90;83.90
29321;DHT22;16323;51.130;6.612;2022-08-01T13:49:28;23.90;83.90
29321;DHT22;16323;51.130;6.612;2022-08-01T13:51:56;23.90;83.80
29321;DHT22;16323;51.130;6.612;2022-08-01T13:54:25;23.90;83.80
29321;DHT22;16323;51.130;6.612;2022-08-01T13:56:52;23.90;83.80
29321;DHT22;16323;51.130;6.612;2022-08-01T13:59:19;23.90;83.80
29321;DHT22;16323;51.130;6.612;2022-08-01T14:01:46;23.90;83.80
29321;DHT22;16323;51.130;6.612;2022-08-01T14:04:13;23.90;83.70
29321;DHT22;16323;51.130;6.612;2022-08-01T14:06:40;23.90;83.80
29321;DHT22;16323;51.130;6.612;2022-08-01T14:09:07;23.90;83.80
29321;DHT22;16323;51.130;6.612;2022-08-01T14:11:35;23.90;83.80
29321;DHT22;16323;51.130;6.612;2022-08-01T14:14:03;23.90;83.70
29321;DHT22;16323;51.130;6.612;2022-08-01T14:16:29;23.90;83.70
29321;DHT22;16323;51.130;6.612;2022-08-01T14:18:56;23.90;83.70
29321;DHT22;16323;51.130;6.612;2022-08-01T14:21:23;23.90;83.60
29321;DHT22;16323;51.130;6.612;2022-08-01T14:23:50;23.90;83.60
29321;DHT22;16323;51.130;6.612;2022-08-01T14:26:16;23.90;83.60
29321;DHT22;16323;51.130;6.612;2022-08-01T14:28:44;23.90;83.60
29321;DHT22;16323;51.130;6.612;2022-08-01T14:31:11;23.90;83.60
29321;DHT22;16323;51.130;6.612;2022-08-01T14:33:38;23.90;83.70
29321;DHT22;16323;51.130;6.612;2022-08-01T14:36:05;23.90;83.70
29321;DHT22;16323;51.130;6.612;2022-08-01T14:38:32;23.90;83.60
29321;DHT22;16323;51.130;6.612;2022-08-01T14:40:59;23.90;83.80
29321;DHT22;16323;51.130;6.612;2022-08-01T14:43:28;23.90;83.80
29321;DHT22;16323;51.130;6.612;2022-08-01T14:45:58;23.90;83.80
29321;DHT22;16323;51.130;6.612;2022-08-01T14:48:25;23.90;83.90
29321;DHT22;16323;51.130;6.612;2022-08-01T14:50:52;23.90;83.90
29321;DHT22;16323;51.130;6.612;2022-08-01T14:53:19;23.90;83.80
29321;DHT22;16323;51.130;6.612;2022-08-01T14:55:46;23.90;83.90
29321;DHT22;16323;51.130;6.612;2022-08-01T14:58:13;23.90;84.00
29321;DHT22;16323;51.130;6.612;2022-08-01T15:00:39;23.90;84.00
29321;DHT22;16323;51.130;6.612;2022-08-01T15:03:08;23.90;83.90
29321;DHT22;16323;51.130;6.612;2022-08-01T15:05:34;23.90;83.80
29321;DHT22;16323;51.130;6.612;2022-08-01T15:08:01;23.90;83.90
29321;DHT22;16323;51.130;6.612;2022-08-01T15:10:28;23.90;83.90
29321;DHT22;16323;51.130;6.612;2022-08-01T15:12:57;23.90;83.90
29321;DHT22;16323;51.130;6.612;2022-08-01T15:15:25;23.90;83.90
29321;DHT22;16323;51.130;6.612;2022-08-01T15:17:52;23.90;84.00
29321;DHT22;16323;51.130;6.612;2022-08-01T15:20:20;23.90;84.00
29321;DHT22;16323;51.130;6.612;2022-08-01T15:22:47;23.90;83.90
29321;DHT22;16323;51.130;6.612;2022-08-01T15:25:14;23.90;83.90
29321;DHT22;16323;51.130;6.612;2022-08-01T15:27:41;23.90;84.00
29321;DHT22;16323;51.130;6.612;2022-08-01T15:30:08;23.90;84.00
29321;DHT22;16323;51.130;6.612;2022-08-01T15:32:35;23.90;84.00
29321;DHT22;16323;51.130;6.612;2022-08-01T15:35:02;23.90;84.10
29321;DHT22;16323;51.130;6.612;2022-08-01T15:37:30;23.90;84.10
29321;DHT22;16323;51.130;6.612;2022-08-01T15:39:57;23.90;84.00
29321;DHT22;16323;51.130;6.612;2022-08-01T15:42:23;23.90;84.00
29321;DHT22;16323;51.130;6.612;2022-08-01T15:44:50;23.90;84.00